sensor_id;sensor_type;location;lat;lon;timestamp;temperature;humidity
74368;DHT22;64991;41.090;-8.118;2023-08-07T00:02:44;27.10;70.20
74368;DHT22;64991;41.090;-8.118;2023-08-07T00:07:47;27.10;70.30
74368;DHT22;64991;41.090;-8.118;2023-08-07T00:12:52;27.10;70.40
74368;DHT22;64991;41.090;-8.118;2023-08-07T00:17:55;27.00;70.20
74368;DHT22;64991;41.090;-8.118;2023-08-07T00:22:59;27.10;69.80
74368;DHT22;64991;41.090;-8.118;2023-08-07T00:28:04;27.10;69.90
74368;DHT22;64991;41.090;-8.118;2023-08-07T00:33:07;27.10;70.00
74368;DHT22;64991;41.090;-8.118;2023-08-07T00:38:11;27.10;69.80
74368;DHT22;64991;41.090;-8.118;2023-08-07T00:43:15;27.10;69.90
74368;DHT22;64991;41.090;-8.118;2023-08-07T00:48:19;27.10;69.80
74368;DHT22;64991;41.090;-8.118;2023-08-07T00:53:22;27.10;69.70
74368;DHT22;64991;41.090;-8.118;2023-08-07T00:58:28;27.10;70.00
74368;DHT22;64991;41.090;-8.118;2023-08-07T01:03:31;27.10;69.70
74368;DHT22;64991;41.090;-8.118;2023-08-07T01:08:35;27.10;69.60
74368;DHT22;64991;41.090;-8.118;2023-08-07T01:13:40;27.10;69.20
74368;DHT22;64991;41.090;-8.118;2023-08-07T01:18:49;27.10;69.30
74368;DHT22;64991;41.090;-8.118;2023-08-07T01:23:54;27.10;69.50
74368;DHT22;64991;41.090;-8.118;2023-08-07T01:29:00;27.10;68.90
74368;DHT22;64991;41.090;-8.118;2023-08-07T01:34:08;27.10;68.90
74368;DHT22;64991;41.090;-8.118;2023-08-07T01:39:15;27.10;68.60
74368;DHT22;64991;41.090;-8.118;2023-08-07T01:44:19;27.10;68.20
74368;DHT22;64991;41.090;-8.118;2023-08-07T01:49:23;27.10;68.10
74368;DHT22;64991;41.090;-8.118;2023-08-07T01:54:28;27.10;68.00
74368;DHT22;64991;41.090;-8.118;2023-08-07T01:59:31;27.10;67.60
74368;DHT22;64991;41.090;-8.118;2023-08-07T02:04:36;27.10;67.60
74368;DHT22;64991;41.090;-8.118;2023-08-07T02:09:41;27.10;67.50
74368;DHT22;64991;41.090;-8.118;2023-08-07T02:14:44;27.10;67.50
74368;DHT22;64991;41.090;-8.118;2023-08-07T02:19:48;27.10;67.20
74368;DHT22;64991;41.090;-8.118;2023-08-07T02:24:53;27.10;67.00
74368;DHT22;64991;41.090;-8.118;2023-08-07T02:29:56;27.10;66.90
74368;DHT22;64991;41.090;-8.118;2023-08-07T02:35:00;27.00;66.60
74368;DHT22;64991;41.090;-8.118;2023-08-07T02:40:06;27.10;66.40
74368;DHT22;64991;41.090;-8.118;2023-08-07T02:45:10;27.10;66.50
74368;DHT22;64991;41.090;-8.118;2023-08-07T02:50:13;27.10;66.30
74368;DHT22;64991;41.090;-8.118;2023-08-07T02:55:18;27.10;66.40
74368;DHT22;64991;41.090;-8.118;2023-08-07T03:00:22;27.10;66.20
74368;DHT22;64991;41.090;-8.118;2023-08-07T03:05:25;27.10;66.20
74368;DHT22;64991;41.090;-8.118;2023-08-07T03:10:30;27.20;66.20
74368;DHT22;64991;41.090;-8.118;2023-08-07T03:15:34;27.10;65.70
74368;DHT22;64991;41.090;-8.118;2023-08-07T03:20:37;27.10;65.80
74368;DHT22;64991;41.090;-8.118;2023-08-07T03:25:42;27.10;65.80
74368;DHT22;64991;41.090;-8.118;2023-08-07T03:30:46;27.10;65.60
74368;DHT22;64991;41.090;-8.118;2023-08-07T03:35:49;27.10;65.60
74368;DHT22;64991;41.090;-8.118;2023-08-07T03:40:54;27.10;65.70
74368;DHT22;64991;41.090;-8.118;2023-08-07T03:45:58;27.10;65.40
74368;DHT22;64991;41.090;-8.118;2023-08-07T03:51:04;27.10;65.40
74368;DHT22;64991;41.090;-8.118;2023-08-07T03:56:11;27.10;65.20
74368;DHT22;64991;41.090;-8.118;2023-08-07T04:01:15;27.10;65.00
74368;DHT22;64991;41.090;-8.118;2023-08-07T04:06:19;27.10;65.10
74368;DHT22;64991;41.090;-8.118;2023-08-07T04:11:24;27.00;64.90
74368;DHT22;64991;41.090;-8.118;2023-08-07T04:16:28;27.10;65.10
74368;DHT22;64991;41.090;-8.118;2023-08-07T04:21:33;27.10;64.80
74368;DHT22;64991;41.090;-8.118;2023-08-07T04:26:38;27.10;64.60
74368;DHT22;64991;41.090;-8.118;2023-08-07T04:31:41;27.10;64.80
74368;DHT22;64991;41.090;-8.118;2023-08-07T04:36:45;27.10;64.40
74368;DHT22;64991;41.090;-8.118;2023-08-07T04:41:49;27.10;64.60
74368;DHT22;64991;41.090;-8.118;2023-08-07T04:46:53;27.10;64.50
74368;DHT22;64991;41.090;-8.118;2023-08-07T04:51:57;27.00;64.30
74368;DHT22;64991;41.090;-8.118;2023-08-07T04:57:09;27.10;64.30
74368;DHT22;64991;41.090;-8.118;2023-08-07T05:02:12;27.10;64.10
74368;DHT22;64991;41.090;-8.118;2023-08-07T05:07:16;27.00;64.00
74368;DHT22;64991;41.090;-8.118;2023-08-07T05:12:21;27.10;63.60
74368;DHT22;64991;41.090;-8.118;2023-08-07T05:17:24;27.10;63.70
74368;DHT22;64991;41.090;-8.118;2023-08-07T05:22:28;27.00;63.50
74368;DHT22;64991;41.090;-8.118;2023-08-07T05:27:33;27.00;63.10
74368;DHT22;64991;41.090;-8.118;2023-08-07T05:32:37;27.00;63.10
74368;DHT22;64991;41.090;-8.118;2023-08-07T05:37:40;27.00;62.80
74368;DHT22;64991;41.090;-8.118;2023-08-07T05:42:45;27.10;62.70
74368;DHT22;64991;41.090;-8.118;2023-08-07T05:47:49;27.00;62.60
74368;DHT22;64991;41.090;-8.118;2023-08-07T05:52:52;27.00;62.60
74368;DHT22;64991;41.090;-8.118;2023-08-07T05:57:57;27.00;62.50
74368;DHT22;64991;41.090;-8.118;2023-08-07T06:03:00;27.00;62.10
74368;DHT22;64991;41.090;-8.118;2023-08-07T06:08:04;26.90;62.00
74368;DHT22;64991;41.090;-8.118;2023-08-07T06:13:09;27.00;62.30
74368;DHT22;64991;41.090;-8.118;2023-08-07T06:18:27;27.00;61.90
74368;DHT22;64991;41.090;-8.118;2023-08-07T06:23:31;27.00;61.80
74368;DHT22;64991;41.090;-8.118;2023-08-07T06:28:36;27.00;61.80
74368;DHT22;64991;41.090;-8.118;2023-08-07T06:33:40;27.10;61.90
74368;DHT22;64991;41.090;-8.118;2023-08-07T06:38:44;27.00;61.40
74368;DHT22;64991;41.090;-8.118;2023-08-07T06:43:49;27.00;61.30
74368;DHT22;64991;41.090;-8.118;2023-08-07T06:48:53;27.00;61.60
74368;DHT22;64991;41.090;-8.118;2023-08-07T06:53:57;27.00;61.70
74368;DHT22;64991;41.090;-8.118;2023-08-07T06:59:02;27.00;61.40
74368;DHT22;64991;41.090;-8.118;2023-08-07T07:04:06;27.00;61.50
74368;DHT22;64991;41.090;-8.118;2023-08-07T07:09:09;27.00;61.10
74368;DHT22;64991;41.090;-8.118;2023-08-07T07:14:19;27.10;61.10
74368;DHT22;64991;41.090;-8.118;2023-08-07T07:19:23;26.90;61.40
74368;DHT22;64991;41.090;-8.118;2023-08-07T07:24:26;27.00;61.20
74368;DHT22;64991;41.090;-8.118;2023-08-07T07:29:32;27.00;61.40
74368;DHT22;64991;41.090;-8.118;2023-08-07T07:34:36;26.90;61.40
74368;DHT22;64991;41.090;-8.118;2023-08-07T07:39:39;27.00;61.40
74368;DHT22;64991;41.090;-8.118;2023-08-07T07:44:45;27.10;61.20
74368;DHT22;64991;41.090;-8.118;2023-08-07T07:50:03;27.10;61.50
74368;DHT22;64991;41.090;-8.118;2023-08-07T07:55:07;27.00;61.40
74368;DHT22;64991;41.090;-8.118;2023-08-07T08:00:14;27.10;61.30
74368;DHT22;64991;41.090;-8.118;2023-08-07T08:05:18;27.00;61.30
74368;DHT22;64991;41.090;-8.118;2023-08-07T08:10:22;27.00;61.20
74368;DHT22;64991;41.090;-8.118;2023-08-07T08:15:28;27.00;61.20
74368;DHT22;64991;41.090;-8.118;2023-08-07T08:20:33;27.10;61.00
74368;DHT22;64991;41.090;-8.118;2023-08-07T08:25:37;27.00;61.10
74368;DHT22;64991;41.090;-8.118;2023-08-07T08:30:42;27.10;61.00
74368;DHT22;64991;41.090;-8.118;2023-08-07T08:35:45;27.10;61.00
74368;DHT22;64991;41.090;-8.118;2023-08-07T08:40:49;27.10;60.90
74368;DHT22;64991;41.090;-8.118;2023-08-07T08:45:56;27.00;60.60
74368;DHT22;64991;41.090;-8.118;2023-08-07T08:50:59;27.00;60.90
74368;DHT22;64991;41.090;-8.118;2023-08-07T08:56:04;27.00;61.00
74368;DHT22;64991;41.090;-8.118;2023-08-07T09:01:09;27.10;60.90
74368;DHT22;64991;41.090;-8.118;2023-08-07T09:06:13;27.10;60.90
74368;DHT22;64991;41.090;-8.118;2023-08-07T09:11:17;27.00;61.10
74368;DHT22;64991;41.090;-8.118;2023-08-07T09:16:23;27.00;61.10
74368;DHT22;64991;41.090;-8.118;2023-08-07T09:21:29;27.00;61.00
74368;DHT22;64991;41.090;-8.118;2023-08-07T09:26:33;27.10;61.10
74368;DHT22;64991;41.090;-8.118;2023-08-07T09:31:38;27.10;60.80
74368;DHT22;64991;41.090;-8.118;2023-08-07T09:36:42;27.10;60.80
74368;DHT22;64991;41.090;-8.118;2023-08-07T09:41:45;27.10;60.90
74368;DHT22;64991;41.090;-8.118;2023-08-07T09:46:55;27.10;60.80
74368;DHT22;64991;41.090;-8.118;2023-08-07T09:51:59;27.10;61.00
74368;DHT22;64991;41.090;-8.118;2023-08-07T09:57:09;27.10;60.60
74368;DHT22;64991;41.090;-8.118;2023-08-07T10:02:14;27.10;60.80
74368;DHT22;64991;41.090;-8.118;2023-08-07T10:07:18;27.10;60.90
74368;DHT22;64991;41.090;-8.118;2023-08-07T10:12:22;27.10;60.80
74368;DHT22;64991;41.090;-8.118;2023-08-07T10:17:27;27.10;60.70
74368;DHT22;64991;41.090;-8.118;2023-08-07T10:22:31;27.10;60.50
74368;DHT22;64991;41.090;-8.118;2023-08-07T10:27:37;27.10;60.70
74368;DHT22;64991;41.090;-8.118;2023-08-07T10:32:43;27.20;60.70
74368;DHT22;64991;41.090;-8.118;2023-08-07T10:37:47;27.20;60.60
74368;DHT22;64991;41.090;-8.118;2023-08-07T10:42:51;27.10;60.30
74368;DHT22;64991;41.090;-8.118;2023-08-07T10:48:03;27.20;60.60
74368;DHT22;64991;41.090;-8.118;2023-08-07T10:53:09;27.20;60.90
74368;DHT22;64991;41.090;-8.118;2023-08-07T10:58:22;27.10;60.70
74368;DHT22;64991;41.090;-8.118;2023-08-07T11:03:31;27.20;60.70
74368;DHT22;64991;41.090;-8.118;2023-08-07T11:08:38;27.20;60.70
74368;DHT22;64991;41.090;-8.118;2023-08-07T11:13:43;27.10;60.90
74368;DHT22;64991;41.090;-8.118;2023-08-07T11:18:48;27.10;60.90
74368;DHT22;64991;41.090;-8.118;2023-08-07T11:23:52;27.10;60.90
74368;DHT22;64991;41.090;-8.118;2023-08-07T11:28:56;27.20;61.00
74368;DHT22;64991;41.090;-8.118;2023-08-07T11:34:01;27.20;61.00
74368;DHT22;64991;41.090;-8.118;2023-08-07T11:39:05;27.10;61.10
74368;DHT22;64991;41.090;-8.118;2023-08-07T11:44:09;27.10;61.30
74368;DHT22;64991;41.090;-8.118;2023-08-07T11:49:14;27.20;61.10
74368;DHT22;64991;41.090;-8.118;2023-08-07T11:54:18;27.20;61.30
74368;DHT22;64991;41.090;-8.118;2023-08-07T11:59:22;27.20;61.70
74368;DHT22;64991;41.090;-8.118;2023-08-07T12:04:27;27.10;61.60
74368;DHT22;64991;41.090;-8.118;2023-08-07T12:09:34;27.20;61.60
74368;DHT22;64991;41.090;-8.118;2023-08-07T12:14:38;27.20;61.80
74368;DHT22;64991;41.090;-8.118;2023-08-07T12:19:43;27.20;61.80
74368;DHT22;64991;41.090;-8.118;2023-08-07T12:24:48;27.10;62.10
74368;DHT22;64991;41.090;-8.118;2023-08-07T12:29:52;27.20;62.20
74368;DHT22;64991;41.090;-8.118;2023-08-07T12:34:57;27.10;62.30
74368;DHT22;64991;41.090;-8.118;2023-08-07T12:40:03;27.10;62.10
74368;DHT22;64991;41.090;-8.118;2023-08-07T12:45:10;27.10;62.40
74368;DHT22;64991;41.090;-8.118;2023-08-07T12:50:18;27.20;62.50
74368;DHT22;64991;41.090;-8.118;2023-08-07T12:55:21;27.20;62.50
74368;DHT22;64991;41.090;-8.118;2023-08-07T13:00:25;27.20;62.50
74368;DHT22;64991;41.090;-8.118;2023-08-07T13:05:30;27.20;62.70
74368;DHT22;64991;41.090;-8.118;2023-08-07T13:10:36;27.10;62.80
74368;DHT22;64991;41.090;-8.118;2023-08-07T13:15:41;27.20;62.80
74368;DHT22;64991;41.090;-8.118;2023-08-07T13:20:46;27.20;63.00
74368;DHT22;64991;41.090;-8.118;2023-08-07T13:25:50;27.20;63.10
74368;DHT22;64991;41.090;-8.118;2023-08-07T13:30:53;27.20;63.20
74368;DHT22;64991;41.090;-8.118;2023-08-07T13:35:59;27.10;63.10
74368;DHT22;64991;41.090;-8.118;2023-08-07T13:41:03;27.20;63.20
74368;DHT22;64991;41.090;-8.118;2023-08-07T13:46:06;27.20;63.20
74368;DHT22;64991;41.090;-8.118;2023-08-07T13:51:12;27.20;63.40
74368;DHT22;64991;41.090;-8.118;2023-08-07T13:56:17;27.20;63.50
74368;DHT22;64991;41.090;-8.118;2023-08-07T14:01:20;27.20;63.40
74368;DHT22;64991;41.090;-8.118;2023-08-07T14:06:25;27.20;63.70
74368;DHT22;64991;41.090;-8.118;2023-08-07T14:11:29;27.20;63.60
74368;DHT22;64991;41.090;-8.118;2023-08-07T14:16:33;27.20;63.70
74368;DHT22;64991;41.090;-8.118;2023-08-07T14:21:40;27.20;63.80
74368;DHT22;64991;41.090;-8.118;2023-08-07T14:26:44;27.20;63.80
74368;DHT22;64991;41.090;-8.118;2023-08-07T14:31:47;27.20;63.80
74368;DHT22;64991;41.090;-8.118;2023-08-07T14:36:52;27.30;63.70
74368;DHT22;64991;41.090;-8.118;2023-08-07T14:41:56;27.20;64.00
74368;DHT22;64991;41.090;-8.118;2023-08-07T14:47:00;27.20;63.80
74368;DHT22;64991;41.090;-8.118;2023-08-07T14:52:06;27.30;64.20
74368;DHT22;64991;41.090;-8.118;2023-08-07T14:57:10;27.30;64.20
74368;DHT22;64991;41.090;-8.118;2023-08-07T15:02:14;27.20;64.20
74368;DHT22;64991;41.090;-8.118;2023-08-07T15:07:20;27.30;64.10
74368;DHT22;64991;41.090;-8.118;2023-08-07T15:12:24;27.20;64.00
74368;DHT22;64991;41.090;-8.118;2023-08-07T15:17:28;27.30;64.20
74368;DHT22;64991;41.090;-8.118;2023-08-07T15:22:33;27.20;64.10
74368;DHT22;64991;41.090;-8.118;2023-08-07T15:27:37;27.30;64.20
74368;DHT22;64991;41.090;-8.118;2023-08-07T15:32:41;27.30;64.30
74368;DHT22;64991;41.090;-8.118;2023-08-07T15:37:46;27.30;64.00
74368;DHT22;64991;41.090;-8.118;2023-08-07T15:42:50;27.30;64.50
74368;DHT22;64991;41.090;-8.118;2023-08-07T15:47:54;27.30;64.30
74368;DHT22;64991;41.090;-8.118;2023-08-07T15:52:59;27.30;64.40
74368;DHT22;64991;41.090;-8.118;2023-08-07T15:58:03;27.30;64.30
74368;DHT22;64991;41.090;-8.118;2023-08-07T16:03:08;27.30;64.20
74368;DHT22;64991;41.090;-8.118;2023-08-07T16:08:13;27.30;64.20
74368;DHT22;64991;41.090;-8.118;2023-08-07T16:13:17;27.40;64.60
74368;DHT22;64991;41.090;-8.118;2023-08-07T16:18:21;27.30;64.60
74368;DHT22;64991;41.090;-8.118;2023-08-07T16:23:26;27.30;64.60
74368;DHT22;64991;41.090;-8.118;2023-08-07T16:28:30;27.20;64.30
74368;DHT22;64991;41.090;-8.118;2023-08-07T16:33:34;27.30;64.50
74368;DHT22;64991;41.090;-8.118;2023-08-07T16:38:39;27.30;64.70
74368;DHT22;64991;41.090;-8.118;2023-08-07T16:43:42;27.40;64.70
74368;DHT22;64991;41.090;-8.118;2023-08-07T16:48:46;27.30;64.50
74368;DHT22;64991;41.090;-8.118;2023-08-07T16:53:51;27.30;64.60
74368;DHT22;64991;41.090;-8.118;2023-08-07T16:58:54;27.30;64.50
74368;DHT22;64991;41.090;-8.118;2023-08-07T17:03:58;27.30;64.60
74368;DHT22;64991;41.090;-8.118;2023-08-07T17:09:03;27.30;64.80
74368;DHT22;64991;41.090;-8.118;2023-08-07T17:14:07;27.40;64.70
74368;DHT22;64991;41.090;-8.118;2023-08-07T17:19:10;27.30;64.90
74368;DHT22;64991;41.090;-8.118;2023-08-07T17:24:15;27.30;64.90
74368;DHT22;64991;41.090;-8.118;2023-08-07T17:29:19;27.40;65.00
74368;DHT22;64991;41.090;-8.118;2023-08-07T17:34:22;27.30;65.00
74368;DHT22;64991;41.090;-8.118;2023-08-07T17:39:28;27.40;65.10
74368;DHT22;64991;41.090;-8.118;2023-08-07T17:44:31;27.40;65.20
74368;DHT22;64991;41.090;-8.118;2023-08-07T17:49:35;27.30;65.20
74368;DHT22;64991;41.090;-8.118;2023-08-07T17:54:41;27.40;65.40
74368;DHT22;64991;41.090;-8.118;2023-08-07T17:59:44;27.40;65.40
74368;DHT22;64991;41.090;-8.118;2023-08-07T18:04:48;27.40;65.40
74368;DHT22;64991;41.090;-8.118;2023-08-07T18:09:56;27.40;65.60
74368;DHT22;64991;41.090;-8.118;2023-08-07T18:14:59;27.40;65.60
74368;DHT22;64991;41.090;-8.118;2023-08-07T18:20:04;27.40;65.70
74368;DHT22;64991;41.090;-8.118;2023-08-07T18:25:10;27.40;66.00
74368;DHT22;64991;41.090;-8.118;2023-08-07T18:30:14;27.40;65.90
74368;DHT22;64991;41.090;-8.118;2023-08-07T18:35:18;27.50;65.90
74368;DHT22;64991;41.090;-8.118;2023-08-07T18:40:22;27.40;66.20
74368;DHT22;64991;41.090;-8.118;2023-08-07T18:45:26;27.40;66.40
74368;DHT22;64991;41.090;-8.118;2023-08-07T18:50:30;27.40;66.40
74368;DHT22;64991;41.090;-8.118;2023-08-07T18:55:35;27.40;66.50
74368;DHT22;64991;41.090;-8.118;2023-08-07T19:00:39;27.50;66.50
74368;DHT22;64991;41.090;-8.118;2023-08-07T19:05:43;27.50;66.80
74368;DHT22;64991;41.090;-8.118;2023-08-07T19:10:49;27.40;66.90
74368;DHT22;64991;41.090;-8.118;2023-08-07T19:15:54;27.50;66.80
74368;DHT22;64991;41.090;-8.118;2023-08-07T19:20:58;27.40;67.10
74368;DHT22;64991;41.090;-8.118;2023-08-07T19:26:04;27.50;67.00
74368;DHT22;64991;41.090;-8.118;2023-08-07T19:31:08;27.50;67.20
74368;DHT22;64991;41.090;-8.118;2023-08-07T19:36:12;27.40;67.40
74368;DHT22;64991;41.090;-8.118;2023-08-07T19:41:17;27.50;67.40
74368;DHT22;64991;41.090;-8.118;2023-08-07T19:46:21;27.50;67.30
74368;DHT22;64991;41.090;-8.118;2023-08-07T19:51:25;27.40;67.40
74368;DHT22;64991;41.090;-8.118;2023-08-07T19:56:30;27.50;67.30
74368;DHT22;64991;41.090;-8.118;2023-08-07T20:01:37;27.50;67.60
74368;DHT22;64991;41.090;-8.118;2023-08-07T20:06:41;27.50;67.40
74368;DHT22;64991;41.090;-8.118;2023-08-07T20:11:46;27.50;67.60
74368;DHT22;64991;41.090;-8.118;2023-08-07T20:16:49;27.50;67.80
74368;DHT22;64991;41.090;-8.118;2023-08-07T20:21:53;27.50;67.90
74368;DHT22;64991;41.090;-8.118;2023-08-07T20:26:59;27.50;67.90
74368;DHT22;64991;41.090;-8.118;2023-08-07T20:32:03;27.50;68.00
74368;DHT22;64991;41.090;-8.118;2023-08-07T20:37:07;27.50;67.90
74368;DHT22;64991;41.090;-8.118;2023-08-07T20:42:12;27.50;68.10
74368;DHT22;64991;41.090;-8.118;2023-08-07T20:47:15;27.50;68.10
74368;DHT22;64991;41.090;-8.118;2023-08-07T20:52:19;27.50;68.10
74368;DHT22;64991;41.090;-8.118;2023-08-07T20:57:24;27.50;68.30
74368;DHT22;64991;41.090;-8.118;2023-08-07T21:02:28;27.60;68.10
74368;DHT22;64991;41.090;-8.118;2023-08-07T21:07:32;27.40;68.10
74368;DHT22;64991;41.090;-8.118;2023-08-07T21:12:38;27.50;68.00
74368;DHT22;64991;41.090;-8.118;2023-08-07T21:17:42;27.50;68.20
74368;DHT22;64991;41.090;-8.118;2023-08-07T21:22:45;27.50;68.10
74368;DHT22;64991;41.090;-8.118;2023-08-07T21:27:50;27.50;68.10
74368;DHT22;64991;41.090;-8.118;2023-08-07T21:32:54;27.50;68.30
74368;DHT22;64991;41.090;-8.118;2023-08-07T21:37:57;27.50;67.90
74368;DHT22;64991;41.090;-8.118;2023-08-07T21:43:03;27.60;67.90
74368;DHT22;64991;41.090;-8.118;2023-08-07T21:48:07;27.50;68.00
74368;DHT22;64991;41.090;-8.118;2023-08-07T21:53:11;27.50;67.90
74368;DHT22;64991;41.090;-8.118;2023-08-07T21:58:16;27.50;67.80
74368;DHT22;64991;41.090;-8.118;2023-08-07T22:03:20;27.50;67.90
74368;DHT22;64991;41.090;-8.118;2023-08-07T22:08:23;27.50;68.00
74368;DHT22;64991;41.090;-8.118;2023-08-07T22:13:28;27.50;67.80
74368;DHT22;64991;41.090;-8.118;2023-08-07T22:18:32;27.60;68.20
74368;DHT22;64991;41.090;-8.118;2023-08-07T22:23:36;27.50;67.90
74368;DHT22;64991;41.090;-8.118;2023-08-07T22:28:41;27.50;67.80
74368;DHT22;64991;41.090;-8.118;2023-08-07T22:33:46;27.60;67.90
74368;DHT22;64991;41.090;-8.118;2023-08-07T22:38:50;27.50;67.50
74368;DHT22;64991;41.090;-8.118;2023-08-07T22:43:55;27.50;67.70
74368;DHT22;64991;41.090;-8.118;2023-08-07T22:48:58;27.50;67.50
74368;DHT22;64991;41.090;-8.118;2023-08-07T22:54:02;27.50;67.60
74368;DHT22;64991;41.090;-8.118;2023-08-07T22:59:07;27.60;67.60
74368;DHT22;64991;41.090;-8.118;2023-08-07T23:04:11;27.50;67.40
74368;DHT22;64991;41.090;-8.118;2023-08-07T23:09:15;27.60;67.50
74368;DHT22;64991;41.090;-8.118;2023-08-07T23:14:22;27.50;67.50
74368;DHT22;64991;41.090;-8.118;2023-08-07T23:19:26;27.50;67.30
74368;DHT22;64991;41.090;-8.118;2023-08-07T23:24:29;27.60;67.40
74368;DHT22;64991;41.090;-8.118;2023-08-07T23:29:34;27.60;67.30
74368;DHT22;64991;41.090;-8.118;2023-08-07T23:34:40;27.50;67.60
74368;DHT22;64991;41.090;-8.118;2023-08-07T23:39:43;27.60;67.20
74368;DHT22;64991;41.090;-8.118;2023-08-07T23:44:48;27.60;67.60
74368;DHT22;64991;41.090;-8.118;2023-08-07T23:49:52;27.60;67.60
74368;DHT22;64991;41.090;-8.118;2023-08-07T23:54:55;27.50;67.60
